Time;durP1;ratioP1;P1;durP2;ratioP2;P2;SDS_P1;SDS_P2;PMS_P1;PMS_P2;Temp;Humidity;BMP_temperature;BMP_pressure;BME280_temperature;BME280_humidity;BME280_pressure;Samples;Min_cycle;Max_cycle;Signal;HPM_P1;HPM_P2
2020/12/22 00:00:30;;;;;;;2.23;2.03;;;12.60;99.90;;;;;;5070596;28;20209;-60
2020/12/22 00:02:57;;;;;;;2.67;1.90;;;12.60;99.90;;;;;;5073536;28;20201;-61
2020/12/22 00:05:23;;;;;;;2.00;1.80;;;12.60;99.90;;;;;;5074355;28;20621;-61
2020/12/22 00:07:50;;;;;;;2.33;2.13;;;12.50;99.90;;;;;;5074113;28;20243;-61
2020/12/22 00:10:16;;;;;;;2.53;1.93;;;12.60;99.90;;;;;;5074429;28;20553;-61
2020/12/22 00:12:42;;;;;;;1.97;1.77;;;12.50;99.90;;;;;;5074026;28;20205;-61
2020/12/22 00:15:09;;;;;;;2.10;1.90;;;12.60;99.90;;;;;;5073685;28;20688;-61
2020/12/22 00:17:37;;;;;;;2.00;1.80;;;12.60;99.90;;;;;;5074030;28;20262;-61
2020/12/22 00:20:04;;;;;;;2.30;1.90;;;12.60;99.90;;;;;;5074257;28;20201;-60
2020/12/22 00:22:30;;;;;;;1.90;1.57;;;12.60;99.90;;;;;;5073929;28;20212;-61
2020/12/22 00:24:56;;;;;;;1.60;1.50;;;12.60;99.90;;;;;;5073552;28;20205;-60
2020/12/22 00:27:23;;;;;;;1.83;1.60;;;12.60;99.90;;;;;;5073784;28;20201;-60
2020/12/22 00:29:49;;;;;;;2.27;1.50;;;12.60;99.90;;;;;;5073473;28;20743;-61
2020/12/22 00:32:15;;;;;;;2.30;1.43;;;12.70;99.90;;;;;;5074325;28;20212;-60
2020/12/22 00:34:42;;;;;;;2.00;1.80;;;12.70;99.90;;;;;;5073621;28;20228;-61
2020/12/22 00:37:08;;;;;;;2.57;1.80;;;12.70;99.90;;;;;;5073683;28;20216;-61
2020/12/22 00:39:34;;;;;;;2.50;1.83;;;12.60;99.90;;;;;;5073363;28;20232;-61
2020/12/22 00:42:00;;;;;;;1.80;1.67;;;12.70;99.90;;;;;;5073623;28;20208;-61
2020/12/22 00:44:27;;;;;;;1.67;1.30;;;12.70;99.90;;;;;;5073545;28;20254;-60
2020/12/22 00:46:54;;;;;;;1.40;1.30;;;12.70;99.90;;;;;;5073550;28;20205;-61
2020/12/22 00:49:21;;;;;;;2.00;1.23;;;12.80;99.90;;;;;;5073267;28;20236;-60
2020/12/22 00:51:48;;;;;;;1.10;1.00;;;12.80;99.90;;;;;;5073636;28;20208;-61
2020/12/22 00:54:14;;;;;;;1.43;1.33;;;12.90;99.90;;;;;;5073044;28;20221;-61
2020/12/22 00:56:41;;;;;;;1.93;1.33;;;12.90;99.90;;;;;;5073549;28;20215;-61
2020/12/22 00:59:08;;;;;;;1.70;1.43;;;12.90;99.90;;;;;;5072749;28;20599;-61
2020/12/22 01:01:34;;;;;;;3.00;1.10;;;12.90;99.90;;;;;;5073229;28;20205;-61
2020/12/22 01:04:00;;;;;;;1.93;1.17;;;12.90;99.90;;;;;;5072666;28;20669;-60
2020/12/22 01:06:27;;;;;;;1.60;1.10;;;12.90;99.90;;;;;;5073021;28;20254;-61
2020/12/22 01:08:54;;;;;;;1.37;1.20;;;12.90;99.90;;;;;;5072473;28;20620;-61
2020/12/22 01:11:22;;;;;;;1.53;1.00;;;12.90;99.90;;;;;;5072937;28;20205;-61
2020/12/22 01:13:49;;;;;;;1.87;0.87;;;13.00;99.90;;;;;;5072175;28;20274;-61
2020/12/22 01:16:15;;;;;;;1.63;1.00;;;13.00;99.90;;;;;;5073205;28;20206;-61
2020/12/22 01:18:41;;;;;;;1.43;1.20;;;13.00;99.90;;;;;;5072656;28;20225;-61
2020/12/22 01:21:07;;;;;;;0.90;0.90;;;13.00;99.90;;;;;;5072869;28;20205;-61
2020/12/22 01:23:35;;;;;;;1.73;1.40;;;13.00;99.90;;;;;;5072443;28;20205;-61
2020/12/22 01:26:02;;;;;;;4.37;1.80;;;12.80;99.90;;;;;;5072618;28;20201;-61
2020/12/22 01:28:29;;;;;;;1.80;1.10;;;12.90;99.90;;;;;;5072677;28;20639;-61
2020/12/22 01:30:56;;;;;;;1.33;0.90;;;13.00;99.90;;;;;;5073047;28;20208;-60
2020/12/22 01:33:22;;;;;;;1.30;0.80;;;13.00;99.90;;;;;;5072298;28;20614;-60
2020/12/22 01:35:48;;;;;;;0.63;0.63;;;13.00;99.90;;;;;;5072640;28;20220;-61
2020/12/22 01:38:14;;;;;;;1.03;0.93;;;13.10;99.90;;;;;;5072189;28;20233;-60
2020/12/22 01:40:48;;;;;;;1.67;0.87;;;13.10;99.90;;;;;;5072311;28;20201;-60
2020/12/22 01:43:15;;;;;;;1.23;1.00;;;13.10;99.90;;;;;;5072570;28;20205;-60
2020/12/22 01:45:41;;;;;;;1.00;0.80;;;13.10;99.90;;;;;;5072184;28;20684;-61
2020/12/22 01:48:08;;;;;;;1.50;1.07;;;13.10;99.90;;;;;;5072251;28;20240;-61
2020/12/22 01:50:35;;;;;;;2.33;1.23;;;13.10;99.90;;;;;;5072633;28;20205;-61
2020/12/22 01:53:01;;;;;;;0.97;0.70;;;13.10;99.90;;;;;;5072003;28;20250;-61
2020/12/22 01:55:27;;;;;;;1.50;1.17;;;13.10;99.90;;;;;;5072084;28;20310;-60
2020/12/22 01:57:53;;;;;;;0.63;0.60;;;13.10;99.90;;;;;;5072062;28;20782;-61
2020/12/22 02:00:20;;;;;;;0.70;0.70;;;13.10;99.90;;;;;;5072080;28;20209;-61
2020/12/22 02:02:46;;;;;;;0.67;0.60;;;13.10;99.90;;;;;;5072030;28;20213;-60
2020/12/22 02:05:13;;;;;;;0.53;0.50;;;13.10;99.90;;;;;;5071696;28;20580;-60
2020/12/22 02:07:40;;;;;;;1.07;0.93;;;13.10;99.90;;;;;;5071455;28;20219;-61
2020/12/22 02:10:06;;;;;;;0.73;0.70;;;13.20;99.90;;;;;;5071984;28;20262;-60
2020/12/22 02:12:38;;;;;;;0.80;0.60;;;13.20;99.90;;;;;;5072005;28;20205;-61
2020/12/22 02:15:04;;;;;;;0.40;0.40;;;13.30;99.90;;;;;;5071375;28;20236;-61
2020/12/22 02:17:31;;;;;;;0.50;0.50;;;13.20;99.90;;;;;;5071536;28;20209;-60
2020/12/22 02:19:58;;;;;;;0.60;0.53;;;13.30;99.90;;;;;;5071863;28;20204;-61
2020/12/22 02:22:25;;;;;;;0.70;0.50;;;13.30;99.90;;;;;;5071485;28;20584;-60
2020/12/22 02:24:51;;;;;;;0.77;0.37;;;13.50;99.90;;;;;;5070552;28;20201;-61
2020/12/22 02:27:17;;;;;;;0.57;0.57;;;13.30;99.90;;;;;;5071591;28;20216;-60
2020/12/22 02:29:43;;;;;;;1.17;0.60;;;13.30;99.90;;;;;;5071255;28;20225;-61
2020/12/22 02:32:09;;;;;;;0.60;0.40;;;13.40;99.90;;;;;;5071451;28;20577;-61
2020/12/22 02:34:35;;;;;;;1.20;0.60;;;13.50;99.90;;;;;;5071522;28;20220;-60
2020/12/22 02:37:01;;;;;;;0.37;0.30;;;13.50;99.90;;;;;;5071323;28;20216;-60
2020/12/22 02:39:28;;;;;;;1.90;0.40;;;13.50;99.90;;;;;;5070886;28;20573;-61
2020/12/22 02:41:55;;;;;;;0.20;0.20;;;13.60;99.90;;;;;;5071409;28;20200;-61
2020/12/22 02:44:21;;;;;;;0.40;0.30;;;13.50;99.90;;;;;;5071011;28;20616;-60
2020/12/22 02:46:47;;;;;;;0.30;0.30;;;13.60;99.90;;;;;;5071364;28;20212;-61
2020/12/22 02:49:13;;;;;;;0.30;0.30;;;13.60;99.90;;;;;;5070959;28;20232;-61
2020/12/22 02:51:39;;;;;;;0.27;0.27;;;13.60;99.90;;;;;;5071103;28;20205;-61
2020/12/22 02:54:05;;;;;;;0.53;0.40;;;13.70;99.90;;;;;;5070933;28;20278;-61
2020/12/22 02:56:33;;;;;;;0.30;0.20;;;13.70;99.90;;;;;;5071241;28;20208;-60
2020/12/22 02:58:59;;;;;;;0.40;0.40;;;13.70;99.90;;;;;;5071027;28;20229;-60
2020/12/22 03:01:25;;;;;;;0.20;0.20;;;13.60;99.90;;;;;;5073440;28;20668;-61
2020/12/22 03:03:51;;;;;;;0.60;0.20;;;13.60;99.90;;;;;;5071774;28;20205;-61
2020/12/22 03:06:18;;;;;;;0.20;0.20;;;13.80;99.90;;;;;;5071388;28;20223;-60
2020/12/22 03:08:44;;;;;;;0.30;0.20;;;13.80;99.90;;;;;;5071680;28;20232;-61
2020/12/22 03:11:10;;;;;;;0.20;0.20;;;13.80;99.90;;;;;;5071198;28;20204;-61
2020/12/22 03:13:37;;;;;;;0.30;0.30;;;13.90;99.90;;;;;;5070693;28;20217;-61
2020/12/22 03:16:03;;;;;;;0.73;0.13;;;13.90;99.90;;;;;;5070949;28;20209;-60
2020/12/22 03:18:29;;;;;;;0.47;0.20;;;14.00;99.90;;;;;;5070578;28;20286;-61
2020/12/22 03:20:55;;;;;;;0.27;0.27;;;13.90;99.90;;;;;;5070835;28;20212;-61
2020/12/22 03:23:22;;;;;;;0.27;0.27;;;14.00;99.90;;;;;;5071409;28;20661;-61
2020/12/22 03:25:48;;;;;;;0.60;0.33;;;14.10;99.90;;;;;;5071196;28;20209;-61
2020/12/22 03:28:14;;;;;;;0.50;0.40;;;14.10;99.90;;;;;;5070487;28;20278;-61
2020/12/22 03:30:41;;;;;;;0.30;0.30;;;14.10;99.90;;;;;;5070822;28;20204;-61
2020/12/22 03:33:07;;;;;;;0.10;0.10;;;14.00;99.90;;;;;;5070819;28;20216;-61
2020/12/22 03:35:33;;;;;;;0.30;0.20;;;14.00;99.90;;;;;;5071587;28;20208;-61
2020/12/22 03:37:59;;;;;;;0.90;0.30;;;14.00;99.90;;;;;;5074552;28;20228;-61
2020/12/22 03:40:26;;;;;;;0.40;0.20;;;14.00;99.90;;;;;;5074931;28;20205;-61
2020/12/22 03:42:54;;;;;;;0.47;0.20;;;14.20;99.90;;;;;;5075131;28;20623;-61
2020/12/22 03:45:20;;;;;;;0.33;0.30;;;14.20;99.90;;;;;;5074463;28;20661;-61
2020/12/22 03:47:47;;;;;;;0.40;0.30;;;14.20;99.90;;;;;;5074153;28;20238;-61
2020/12/22 03:50:14;;;;;;;0.17;0.17;;;14.10;99.90;;;;;;5074385;28;20668;-61
2020/12/22 03:52:40;;;;;;;1.70;0.50;;;14.10;99.90;;;;;;5074759;28;20201;-61
2020/12/22 03:55:06;;;;;;;0.10;0.10;;;14.10;99.90;;;;;;5074533;28;20294;-61
2020/12/22 03:57:32;;;;;;;0.30;0.23;;;14.00;99.90;;;;;;5074464;28;20212;-61
2020/12/22 03:59:58;;;;;;;0.87;0.13;;;13.90;99.90;;;;;;5074141;28;20205;-61
2020/12/22 04:02:24;;;;;;;1.37;0.20;;;13.90;99.90;;;;;;5074122;28;20673;-61
2020/12/22 04:04:51;;;;;;;0.23;0.20;;;14.00;99.90;;;;;;5074263;28;20201;-61
2020/12/22 04:07:18;;;;;;;0.93;0.10;;;14.10;99.90;;;;;;5074283;28;20205;-61
2020/12/22 04:09:44;;;;;;;0.43;0.23;;;14.20;99.90;;;;;;5073676;28;20240;-61
2020/12/22 04:12:10;;;;;;;0.20;0.20;;;14.20;99.90;;;;;;5074074;28;20205;-61
2020/12/22 04:14:36;;;;;;;0.57;0.20;;;14.20;99.90;;;;;;5073684;28;20247;-61
2020/12/22 04:17:02;;;;;;;0.20;0.20;;;14.20;99.90;;;;;;5074218;28;20291;-61
2020/12/22 04:19:29;;;;;;;9.93;8.97;;;14.30;99.90;;;;;;5073969;28;20225;-61
2020/12/22 04:21:57;;;;;;;1.80;0.60;;;14.30;99.90;;;;;;5073982;28;20209;-61
2020/12/22 04:24:23;;;;;;;0.57;0.30;;;14.30;99.90;;;;;;5073764;28;20208;-61
2020/12/22 04:26:50;;;;;;;1.50;0.10;;;14.30;99.90;;;;;;5073835;28;20292;-61
2020/12/22 04:29:16;;;;;;;0.17;0.10;;;14.30;99.90;;;;;;5073386;28;20229;-61
2020/12/22 04:31:42;;;;;;;0.50;0.20;;;14.30;99.90;;;;;;5074473;28;20205;-61
2020/12/22 04:34:08;;;;;;;0.63;0.30;;;14.20;99.90;;;;;;5073430;28;20237;-61
2020/12/22 04:36:34;;;;;;;0.20;0.20;;;14.30;99.90;;;;;;5073612;28;20561;-62
2020/12/22 04:39:01;;;;;;;0.30;0.30;;;14.40;99.90;;;;;;5073424;28;20224;-61
2020/12/22 04:41:29;;;;;;;0.30;0.20;;;14.40;99.90;;;;;;5073499;28;20702;-61
2020/12/22 04:43:55;;;;;;;0.53;0.50;;;14.30;99.90;;;;;;5073226;28;20263;-61
2020/12/22 04:46:22;;;;;;;0.50;0.30;;;14.40;99.90;;;;;;5073655;28;20201;-61
2020/12/22 04:48:53;;;;;;;0.90;0.20;;;14.40;99.90;;;;;;5072546;28;20282;-61
2020/12/22 04:51:20;;;;;;;0.13;0.13;;;14.40;99.90;;;;;;5073616;28;20205;-61
2020/12/22 04:53:47;;;;;;;0.40;0.20;;;14.40;99.90;;;;;;5073597;28;20221;-61
2020/12/22 04:56:14;;;;;;;0.10;0.10;;;14.40;99.90;;;;;;5073448;28;20205;-61
2020/12/22 04:58:41;;;;;;;0.27;0.27;;;14.40;99.90;;;;;;5072895;28;20232;-61
2020/12/22 05:01:07;;;;;;;0.40;0.40;;;14.40;99.90;;;;;;5073485;28;20212;-62
2020/12/22 05:03:33;;;;;;;0.70;0.17;;;14.40;99.90;;;;;;5073221;28;20201;-61
2020/12/22 05:06:00;;;;;;;2.67;0.30;;;14.40;99.90;;;;;;5073120;28;20215;-61
2020/12/22 05:08:26;;;;;;;0.60;0.60;;;14.50;99.90;;;;;;5072944;28;20233;-61
2020/12/22 05:10:53;;;;;;;0.30;0.30;;;14.50;99.90;;;;;;5072854;28;20216;-61
2020/12/22 05:13:21;;;;;;;0.73;0.33;;;14.40;99.90;;;;;;5073427;28;20223;-61
2020/12/22 05:15:49;;;;;;;0.87;0.80;;;14.50;99.90;;;;;;5073136;28;20205;-61
2020/12/22 05:18:19;;;;;;;0.60;0.20;;;14.40;99.90;;;;;;5072475;28;20708;-61
2020/12/22 05:20:47;;;;;;;0.10;0.10;;;14.40;99.90;;;;;;5073010;28;20208;-61
2020/12/22 05:23:14;;;;;;;0.30;0.30;;;14.50;99.90;;;;;;5072878;28;20215;-61
2020/12/22 05:25:41;;;;;;;0.40;0.40;;;14.50;99.90;;;;;;5072518;28;20204;-61
2020/12/22 05:28:08;;;;;;;0.43;0.40;;;14.40;99.90;;;;;;5072710;28;20312;-61
2020/12/22 05:30:37;;;;;;;0.73;0.40;;;14.60;99.90;;;;;;5072861;28;20296;-61
2020/12/22 05:33:04;;;;;;;0.93;0.47;;;14.50;99.90;;;;;;5072597;28;20200;-61
2020/12/22 05:35:34;;;;;;;1.40;0.30;;;14.50;99.90;;;;;;5072623;28;20237;-61
2020/12/22 05:38:02;;;;;;;0.27;0.27;;;14.50;99.90;;;;;;5072411;28;20224;-61
2020/12/22 05:40:28;;;;;;;2.43;0.50;;;14.40;99.90;;;;;;5072736;28;20201;-61
2020/12/22 05:42:55;;;;;;;0.10;0.10;;;14.40;99.90;;;;;;5072502;28;20204;-61
2020/12/22 05:45:21;;;;;;;0.03;0.03;;;14.50;99.90;;;;;;5072155;28;20350;-61
2020/12/22 05:47:52;;;;;;;0.87;0.20;;;14.60;99.90;;;;;;5072097;28;20249;-61
2020/12/22 05:50:19;;;;;;;0.40;0.13;;;14.60;99.90;;;;;;5072317;28;20338;-61
2020/12/22 05:52:47;;;;;;;0.10;0.10;;;14.60;99.90;;;;;;5072657;28;20216;-61
2020/12/22 05:55:24;;;;;;;0.10;0.10;;;14.50;99.90;;;;;;5071855;28;20248;-60
2020/12/22 05:57:50;;;;;;;0.63;0.20;;;14.60;99.90;;;;;;5072203;28;20235;-61
2020/12/22 06:00:16;;;;;;;0.30;0.20;;;14.60;99.90;;;;;;5072067;28;20218;-61
2020/12/22 06:02:43;;;;;;;1.70;0.20;;;14.50;99.90;;;;;;5072018;28;20205;-61
2020/12/22 06:05:10;;;;;;;0.30;0.10;;;14.60;99.90;;;;;;5071700;28;20278;-61
2020/12/22 06:07:36;;;;;;;2.57;0.67;;;14.60;99.90;;;;;;5071971;28;20205;-60
2020/12/22 06:10:03;;;;;;;1.33;0.73;;;14.50;99.90;;;;;;5072235;28;20209;-61
2020/12/22 06:12:37;;;;;;;1.53;0.50;;;14.60;99.90;;;;;;5071929;28;20205;-61
2020/12/22 06:15:04;;;;;;;0.73;0.30;;;14.60;99.90;;;;;;5071729;28;20224;-60
2020/12/22 06:17:35;;;;;;;0.23;0.23;;;14.60;99.90;;;;;;5071695;28;20213;-61
2020/12/22 06:20:02;;;;;;;1.60;0.23;;;14.60;99.90;;;;;;5072204;28;20193;-61
2020/12/22 06:22:29;;;;;;;1.37;0.67;;;14.70;99.90;;;;;;5072491;28;20205;-61
2020/12/22 06:24:55;;;;;;;2.30;0.70;;;14.60;99.90;;;;;;5071925;28;20236;-61
2020/12/22 06:27:31;;;;;;;8.53;4.63;;;14.70;99.90;;;;;;5071982;28;20209;-61
2020/12/22 06:29:57;;;;;;;0.93;0.40;;;14.70;99.90;;;;;;5071827;28;20681;-61
2020/12/22 06:32:25;;;;;;;0.33;0.23;;;14.70;99.90;;;;;;5072248;28;20213;-61
2020/12/22 06:34:52;;;;;;;0.93;0.40;;;14.60;99.90;;;;;;5071716;28;20688;-61
2020/12/22 06:37:23;;;;;;;1.53;0.30;;;14.60;99.90;;;;;;5072293;28;20201;-61
2020/12/22 06:39:51;;;;;;;1.00;0.43;;;14.60;99.90;;;;;;5071747;28;20382;-61
2020/12/22 06:42:42;;;;;;;1.00;0.70;;;14.70;99.90;;;;;;5072027;28;20205;-61
2020/12/22 06:45:25;;;;;;;1.23;0.70;;;14.80;99.90;;;;;;5046794;28;20205;-61
2020/12/22 06:47:52;;;;;;;0.67;0.57;;;14.80;99.90;;;;;;5071559;28;20224;-60
2020/12/22 06:50:39;;;;;;;2.00;0.60;;;14.80;99.90;;;;;;5071706;28;20215;-60
2020/12/22 06:53:05;;;;;;;0.40;0.30;;;14.80;99.90;;;;;;5071270;28;20207;-61
2020/12/22 06:55:49;;;;;;;1.13;1.00;;;14.90;99.90;;;;;;5071218;28;20704;-61
2020/12/22 06:58:37;;;;;;;0.33;0.33;;;14.90;99.90;;;;;;5071201;28;20252;-61
2020/12/22 07:01:31;;;;;;;1.33;0.63;;;14.80;99.90;;;;;;5071568;28;20263;-61
2020/12/22 07:04:27;;;;;;;1.30;0.80;;;14.80;99.90;;;;;;5013165;28;20662;-61
2020/12/22 07:06:58;;;;;;;0.60;0.30;;;14.80;99.90;;;;;;5071633;28;20217;-61
2020/12/22 07:09:27;;;;;;;0.87;0.37;;;14.90;99.90;;;;;;5071666;28;20705;-61
2020/12/22 07:12:08;;;;;;;1.17;0.80;;;14.90;99.90;;;;;;5070696;28;20300;-61
2020/12/22 07:14:34;;;;;;;1.63;0.30;;;14.90;99.90;;;;;;5071073;28;20224;-60
2020/12/22 07:17:03;;;;;;;1.13;0.67;;;14.90;99.90;;;;;;5071114;28;20213;-61
2020/12/22 07:19:30;;;;;;;0.97;0.30;;;15.00;99.90;;;;;;5070704;28;20599;-61
2020/12/22 07:21:59;;;;;;;0.90;0.27;;;15.00;99.90;;;;;;5070900;28;20201;-61
2020/12/22 07:24:26;;;;;;;0.80;0.50;;;15.10;99.90;;;;;;5070947;28;20201;-61
2020/12/22 07:26:54;;;;;;;0.40;0.30;;;15.10;99.90;;;;;;5072049;28;20200;-61
2020/12/22 07:29:21;;;;;;;1.37;0.40;;;15.10;99.90;;;;;;5071732;28;20236;-61
2020/12/22 07:31:48;;;;;;;0.73;0.23;;;15.10;99.90;;;;;;5071937;28;20204;-60
2020/12/22 07:34:15;;;;;;;1.70;0.50;;;15.10;99.90;;;;;;5071607;28;20220;-61
2020/12/22 07:36:42;;;;;;;0.30;0.30;;;15.10;99.90;;;;;;5070981;28;20204;-61
2020/12/22 07:39:16;;;;;;;2.20;0.60;;;15.20;99.90;;;;;;5070599;28;20308;-61
2020/12/22 07:41:43;;;;;;;1.17;0.70;;;15.20;99.90;;;;;;5070897;28;20211;-61
2020/12/22 07:44:13;;;;;;;1.20;0.60;;;15.20;99.90;;;;;;5070902;28;20209;-61
2020/12/22 07:46:41;;;;;;;0.57;0.57;;;15.20;99.90;;;;;;5070935;28;20424;-61
2020/12/22 07:49:08;;;;;;;1.03;0.40;;;15.20;99.90;;;;;;5070502;28;20227;-60
2020/12/22 07:51:35;;;;;;;1.63;0.90;;;15.10;99.90;;;;;;5070599;28;20212;-60
2020/12/22 07:54:05;;;;;;;0.90;0.57;;;15.10;99.90;;;;;;5070335;28;20232;-60
2020/12/22 07:56:33;;;;;;;0.43;0.37;;;15.20;99.90;;;;;;5070575;28;20621;-60
2020/12/22 07:59:04;;;;;;;0.50;0.37;;;15.20;99.90;;;;;;5070232;28;20232;-61
2020/12/22 08:01:41;;;;;;;1.03;0.67;;;15.30;99.90;;;;;;5070402;28;20254;-60
2020/12/22 08:04:14;;;;;;;1.53;0.97;;;15.20;99.90;;;;;;5069919;28;20216;-60
2020/12/22 08:06:41;;;;;;;0.30;0.30;;;15.20;99.90;;;;;;5070586;28;20205;-61
2020/12/22 08:09:08;;;;;;;1.00;0.30;;;15.20;99.90;;;;;;5069859;28;20240;-60
2020/12/22 08:11:35;;;;;;;0.47;0.30;;;15.20;99.90;;;;;;5070498;28;20258;-60
2020/12/22 08:14:02;;;;;;;0.97;0.27;;;15.20;99.90;;;;;;5069899;28;20224;-60
2020/12/22 08:16:33;;;;;;;0.27;0.27;;;15.30;99.90;;;;;;5070097;28;20251;-60
2020/12/22 08:19:04;;;;;;;0.97;0.40;;;15.40;99.90;;;;;;5070128;28;20232;-61
2020/12/22 08:21:32;;;;;;;0.80;0.50;;;15.40;99.90;;;;;;5070242;28;20209;-61
2020/12/22 08:23:59;;;;;;;1.67;1.10;;;15.30;99.90;;;;;;5073237;28;20246;-60
2020/12/22 08:26:25;;;;;;;1.13;0.40;;;15.40;99.90;;;;;;5073766;28;20213;-61
2020/12/22 08:28:53;;;;;;;0.83;0.23;;;15.40;99.90;;;;;;5073418;28;20236;-61
2020/12/22 08:31:26;;;;;;;0.70;0.40;;;15.40;99.90;;;;;;5073893;28;20841;-61
2020/12/22 08:33:58;;;;;;;0.60;0.37;;;15.50;99.90;;;;;;5073542;28;20221;-61
2020/12/22 08:36:27;;;;;;;0.40;0.30;;;15.50;99.90;;;;;;5073665;28;20208;-61
2020/12/22 08:39:11;;;;;;;1.53;0.40;;;15.50;99.90;;;;;;5073297;28;20225;-61
2020/12/22 08:41:38;;;;;;;1.77;0.40;;;15.60;99.90;;;;;;5073433;28;20231;-61
2020/12/22 08:44:05;;;;;;;0.90;0.40;;;15.70;99.90;;;;;;5073320;28;20205;-61
2020/12/22 08:46:32;;;;;;;1.07;0.40;;;15.70;99.90;;;;;;5073530;28;20244;-61
2020/12/22 08:49:10;;;;;;;0.93;0.33;;;15.70;99.90;;;;;;5073129;28;20221;-61
2020/12/22 08:51:37;;;;;;;0.73;0.47;;;15.60;99.90;;;;;;5073219;28;20200;-61
2020/12/22 08:54:04;;;;;;;0.27;0.20;;;15.70;99.90;;;;;;5072737;28;20735;-61
2020/12/22 08:56:30;;;;;;;0.50;0.30;;;15.80;99.90;;;;;;5073351;28;20215;-61
2020/12/22 08:58:58;;;;;;;1.13;0.33;;;15.90;99.90;;;;;;5072965;28;20225;-61
2020/12/22 09:01:27;;;;;;;2.07;1.87;;;16.00;99.90;;;;;;5073233;28;20212;-62
2020/12/22 09:03:55;;;;;;;2.00;1.10;;;16.10;99.90;;;;;;5069221;28;20581;-60
2020/12/22 09:06:43;;;;;;;1.87;0.70;;;16.30;99.90;;;;;;5072780;28;20209;-64
2020/12/22 09:09:13;;;;;;;1.30;0.73;;;16.40;99.90;;;;;;5084058;22;20232;-62
2020/12/22 09:11:39;;;;;;;1.03;0.40;;;16.40;99.90;;;;;;5053109;28;20220;-65
2020/12/22 09:14:08;;;;;;;0.73;0.40;;;16.40;99.90;;;;;;5052021;28;20766;-61
2020/12/22 09:16:55;;;;;;;0.63;0.50;;;16.40;99.90;;;;;;5052916;28;20214;-61
2020/12/22 09:19:24;;;;;;;7.13;4.30;;;16.50;99.90;;;;;;5052380;28;20238;-61
2020/12/22 09:22:03;;;;;;;2.63;0.30;;;16.60;99.90;;;;;;5052812;28;20567;-62
2020/12/22 09:24:29;;;;;;;1.27;0.30;;;16.60;99.90;;;;;;5052273;28;20217;-62
2020/12/22 09:26:58;;;;;;;1.40;0.30;;;16.60;99.90;;;;;;5052709;28;20201;-62
2020/12/22 09:29:24;;;;;;;1.00;0.30;;;16.50;99.90;;;;;;5051642;28;20226;-61
2020/12/22 09:31:52;;;;;;;1.00;0.40;;;16.50;99.90;;;;;;5052700;28;20217;-64
2020/12/22 09:34:18;;;;;;;1.70;0.67;;;16.40;99.90;;;;;;5051698;28;20277;-63
2020/12/22 09:36:50;;;;;;;0.93;0.43;;;16.40;99.90;;;;;;5052358;28;20217;-63
2020/12/22 09:39:17;;;;;;;2.37;0.40;;;16.50;99.90;;;;;;5051874;28;20226;-64
2020/12/22 09:41:44;;;;;;;0.30;0.20;;;16.40;99.90;;;;;;5052082;28;20210;-62
2020/12/22 09:44:10;;;;;;;0.53;0.20;;;16.30;99.90;;;;;;5051859;28;20205;-63
2020/12/22 09:46:37;;;;;;;0.77;0.10;;;16.40;99.90;;;;;;5052248;28;20286;-62
2020/12/22 09:49:03;;;;;;;1.70;0.30;;;16.40;99.90;;;;;;5051585;28;20233;-62
2020/12/22 09:51:30;;;;;;;0.70;0.30;;;16.40;99.90;;;;;;5052076;28;20213;-61
2020/12/22 09:53:56;;;;;;;1.00;0.90;;;16.50;99.90;;;;;;5051430;28;20217;-62
2020/12/22 09:56:23;;;;;;;1.63;0.80;;;16.50;99.90;;;;;;5051894;28;20213;-62
2020/12/22 09:58:49;;;;;;;1.13;0.60;;;16.40;99.90;;;;;;5051684;28;20237;-62
2020/12/22 10:01:21;;;;;;;2.30;0.60;;;16.40;99.90;;;;;;5051921;28;20229;-62
2020/12/22 10:03:48;;;;;;;1.80;0.80;;;16.30;99.90;;;;;;5051318;28;20681;-62
2020/12/22 10:06:16;;;;;;;2.33;0.43;;;16.30;99.90;;;;;;5051691;28;20263;-62
2020/12/22 10:08:42;;;;;;;1.77;1.27;;;16.30;99.90;;;;;;5050870;28;20329;-59
2020/12/22 10:11:08;;;;;;;0.90;0.40;;;16.30;99.90;;;;;;5051252;28;20205;-60
2020/12/22 10:13:35;;;;;;;0.53;0.30;;;16.40;99.90;;;;;;5050898;28;20214;-61
2020/12/22 10:16:05;;;;;;;0.50;0.40;;;16.50;99.90;;;;;;5032763;28;20209;-62
2020/12/22 10:18:31;;;;;;;1.50;0.50;;;16.50;99.90;;;;;;5030958;28;20756;-61
2020/12/22 10:21:02;;;;;;;1.90;0.60;;;16.60;99.90;;;;;;5031509;28;20202;-60
2020/12/22 10:23:29;;;;;;;0.87;0.33;;;16.70;99.90;;;;;;5031011;28;20206;-61
2020/12/22 10:25:55;;;;;;;1.10;0.30;;;16.70;99.90;;;;;;5031452;28;20202;-61
2020/12/22 10:28:21;;;;;;;2.33;0.50;;;16.80;99.90;;;;;;5031278;28;20248;-61
2020/12/22 10:30:48;;;;;;;1.20;0.50;;;16.80;99.90;;;;;;5031455;28;20206;-61
2020/12/22 10:33:14;;;;;;;1.43;0.53;;;16.80;99.90;;;;;;5031476;28;20202;-62
2020/12/22 10:35:40;;;;;;;0.63;0.30;;;16.80;99.90;;;;;;5031011;28;20230;-62
2020/12/22 10:38:07;;;;;;;1.37;0.60;;;16.80;99.90;;;;;;5030849;28;20237;-61
2020/12/22 10:40:33;;;;;;;1.20;0.70;;;16.90;99.90;;;;;;5031650;28;20214;-61
2020/12/22 10:43:00;;;;;;;1.87;0.67;;;16.90;99.90;;;;;;5031874;28;20206;-60
2020/12/22 10:45:27;;;;;;;3.50;0.60;;;16.90;99.90;;;;;;5030622;28;20268;-62
2020/12/22 10:47:55;;;;;;;0.80;0.70;;;16.80;99.90;;;;;;5031269;28;20234;-62
2020/12/22 10:50:21;;;;;;;3.13;0.60;;;16.80;99.90;;;;;;5030884;28;20206;-61
2020/12/22 10:52:47;;;;;;;0.93;0.50;;;16.80;99.90;;;;;;5030724;28;20704;-61
2020/12/22 10:55:13;;;;;;;1.00;0.50;;;16.70;99.90;;;;;;5030489;28;20226;-61
2020/12/22 10:57:39;;;;;;;8.70;5.63;;;16.80;99.90;;;;;;5030588;28;20256;-61
2020/12/22 11:00:06;;;;;;;2.90;2.10;;;16.80;99.90;;;;;;5030493;28;20225;-62
2020/12/22 11:02:33;;;;;;;4.40;2.90;;;16.80;99.90;;;;;;5030791;28;20205;-63
2020/12/22 11:05:00;;;;;;;3.17;1.90;;;16.70;99.90;;;;;;5030459;28;20279;-62
2020/12/22 11:07:32;;;;;;;2.77;0.53;;;16.70;99.90;;;;;;5030430;28;20206;-63
2020/12/22 11:09:58;;;;;;;2.20;0.70;;;16.60;99.90;;;;;;5030462;28;20238;-61
2020/12/22 11:12:25;;;;;;;8.03;2.00;;;16.70;99.90;;;;;;5030545;28;20218;-63
2020/12/22 11:14:51;;;;;;;2.77;0.67;;;16.70;99.90;;;;;;5030064;28;20234;-63
2020/12/22 11:17:17;;;;;;;0.70;0.40;;;16.70;99.90;;;;;;5030602;28;20221;-62
2020/12/22 11:19:44;;;;;;;0.80;0.30;;;16.60;99.90;;;;;;5029993;28;20273;-62
2020/12/22 11:22:11;;;;;;;3.67;0.67;;;16.60;99.90;;;;;;5030748;28;20300;-61
2020/12/22 11:24:37;;;;;;;0.80;0.50;;;16.50;99.90;;;;;;5030629;28;20210;-61
2020/12/22 11:27:04;;;;;;;1.67;0.50;;;16.50;99.90;;;;;;5030637;28;20210;-60
2020/12/22 11:29:30;;;;;;;3.80;0.40;;;16.50;99.90;;;;;;5030301;28;20234;-59
2020/12/22 11:31:56;;;;;;;1.20;0.50;;;16.40;99.90;;;;;;5030597;28;20756;-59
2020/12/22 11:34:22;;;;;;;1.37;0.40;;;16.40;99.90;;;;;;5030310;28;20309;-60
2020/12/22 11:36:49;;;;;;;0.83;0.30;;;16.50;99.90;;;;;;5030863;28;20271;-59
2020/12/22 11:39:16;;;;;;;0.73;0.30;;;16.50;99.90;;;;;;5030373;28;20254;-59
2020/12/22 11:41:42;;;;;;;1.40;0.33;;;16.60;99.90;;;;;;5030700;28;20584;-59
2020/12/22 11:44:09;;;;;;;0.70;0.50;;;16.60;99.90;;;;;;5030141;28;20213;-60
2020/12/22 11:46:37;;;;;;;1.37;0.87;;;16.50;99.90;;;;;;5030655;28;20203;-60
2020/12/22 11:49:03;;;;;;;2.03;1.03;;;16.40;99.90;;;;;;5029967;28;20222;-60
2020/12/22 11:51:30;;;;;;;0.83;0.50;;;16.40;99.90;;;;;;5030398;28;20535;-60
2020/12/22 11:53:56;;;;;;;1.60;0.53;;;16.40;99.90;;;;;;5030100;28;20206;-60
2020/12/22 11:56:23;;;;;;;5.03;2.70;;;16.30;99.90;;;;;;5031271;28;20202;-60
2020/12/22 11:58:49;;;;;;;1.70;0.93;;;16.40;99.90;;;;;;5034252;28;20234;-60
2020/12/22 12:01:15;;;;;;;2.13;0.90;;;16.40;99.90;;;;;;5034474;28;20233;-60
2020/12/22 12:03:42;;;;;;;1.00;0.60;;;16.40;99.90;;;;;;5034168;28;20247;-59
2020/12/22 12:06:09;;;;;;;1.77;0.93;;;16.40;99.90;;;;;;5034469;28;20210;-59
2020/12/22 12:08:36;;;;;;;2.17;0.43;;;16.50;99.90;;;;;;5034025;28;20659;-59
2020/12/22 12:11:02;;;;;;;0.87;0.47;;;16.60;99.90;;;;;;5034263;28;20213;-60
2020/12/22 12:13:29;;;;;;;4.47;1.33;;;16.70;99.90;;;;;;5033867;28;20206;-60
2020/12/22 12:15:55;;;;;;;1.27;0.73;;;16.70;99.90;;;;;;5034158;28;20280;-60
2020/12/22 12:18:21;;;;;;;1.53;0.30;;;16.80;99.90;;;;;;5033717;28;20614;-60
2020/12/22 12:20:48;;;;;;;0.40;0.40;;;16.80;99.90;;;;;;5034794;28;20210;-59
2020/12/22 12:23:14;;;;;;;1.63;0.80;;;16.80;99.90;;;;;;5034577;28;20217;-60
2020/12/22 12:25:40;;;;;;;0.60;0.30;;;16.80;99.90;;;;;;5033993;28;20697;-60
2020/12/22 12:28:06;;;;;;;1.47;0.60;;;16.80;99.90;;;;;;5033922;28;20277;-59
2020/12/22 12:30:33;;;;;;;1.07;0.40;;;16.90;99.90;;;;;;5033976;28;20202;-59
2020/12/22 12:32:59;;;;;;;0.70;0.50;;;16.90;99.90;;;;;;5033918;28;20348;-59
2020/12/22 12:35:26;;;;;;;0.37;0.37;;;16.90;99.90;;;;;;5033351;28;20226;-60
2020/12/22 12:37:53;;;;;;;1.57;1.23;;;16.90;99.90;;;;;;5033609;28;20297;-60
2020/12/22 12:40:19;;;;;;;0.90;0.70;;;16.90;99.90;;;;;;5033623;28;20221;-59
2020/12/22 12:42:45;;;;;;;0.60;0.50;;;16.70;99.90;;;;;;5033658;28;20214;-60
2020/12/22 12:45:13;;;;;;;1.07;0.80;;;16.70;99.90;;;;;;5033194;28;20203;-60
2020/12/22 12:47:41;;;;;;;1.27;0.90;;;16.60;99.90;;;;;;5033568;28;20256;-60
2020/12/22 12:50:07;;;;;;;1.50;0.70;;;16.60;99.90;;;;;;5033236;28;20722;-61